createdAt,value
2023-01-15T00:00:30.607Z,981.93
2023-01-15T00:01:30.630Z,981.88
2023-01-15T00:02:30.698Z,981.82
2023-01-15T00:03:30.618Z,981.85
2023-01-15T00:04:30.575Z,981.80
2023-01-15T00:05:30.549Z,981.78
2023-01-15T00:06:30.577Z,981.85
2023-01-15T00:07:30.547Z,981.75
2023-01-15T00:08:30.563Z,981.71
2023-01-15T00:09:30.520Z,981.65
2023-01-15T00:10:30.526Z,981.60
2023-01-15T00:11:30.516Z,981.48
2023-01-15T00:12:30.509Z,981.51
2023-01-15T00:13:30.521Z,981.50
2023-01-15T00:14:30.497Z,981.61
2023-01-15T00:15:30.479Z,981.60
2023-01-15T00:16:30.445Z,981.51
2023-01-15T00:17:30.476Z,981.63
2023-01-15T00:18:30.440Z,981.69
2023-01-15T00:19:30.446Z,981.73
2023-01-15T00:20:30.429Z,981.69
2023-01-15T00:21:30.420Z,981.64
2023-01-15T00:22:30.449Z,981.63
2023-01-15T00:23:30.447Z,981.59
2023-01-15T00:24:30.425Z,981.62
2023-01-15T00:25:30.387Z,981.56
2023-01-15T00:26:30.425Z,981.51
2023-01-15T00:27:30.386Z,981.48
2023-01-15T00:28:30.382Z,981.45
2023-01-15T00:29:30.443Z,981.49
2023-01-15T00:30:30.385Z,981.48
2023-01-15T00:31:30.458Z,981.53
2023-01-15T00:32:30.399Z,981.52
2023-01-15T00:33:30.341Z,981.50
2023-01-15T00:34:30.463Z,981.49
2023-01-15T00:35:31.372Z,981.53
2023-01-15T00:36:30.355Z,981.58
2023-01-15T00:37:30.284Z,981.59
2023-01-15T00:38:30.289Z,981.54
2023-01-15T00:39:30.308Z,981.58
2023-01-15T00:40:30.307Z,981.60
2023-01-15T00:41:30.332Z,981.61
2023-01-15T00:42:30.398Z,981.61
2023-01-15T00:43:30.287Z,981.56
2023-01-15T00:44:30.286Z,981.59
2023-01-15T00:45:30.273Z,981.55
2023-01-15T00:46:30.268Z,981.55
2023-01-15T00:47:30.273Z,981.67
2023-01-15T00:48:30.225Z,981.71
2023-01-15T00:49:30.281Z,981.63
2023-01-15T00:50:30.201Z,981.53
2023-01-15T00:51:31.199Z,981.53
2023-01-15T00:52:30.178Z,981.54
2023-01-15T00:53:30.163Z,981.59
2023-01-15T00:54:30.181Z,981.65
2023-01-15T00:55:30.185Z,981.64
2023-01-15T00:56:30.150Z,981.55
2023-01-15T00:57:30.196Z,981.50
2023-01-15T00:58:30.124Z,981.50
2023-01-15T00:59:30.118Z,981.44
2023-01-15T01:00:30.219Z,981.53
2023-01-15T01:01:30.248Z,981.39
2023-01-15T01:02:30.156Z,981.31
2023-01-15T01:03:30.109Z,981.32
2023-01-15T01:04:30.102Z,981.34
2023-01-15T01:05:30.134Z,981.31
2023-01-15T01:06:30.157Z,981.37
2023-01-15T01:07:30.158Z,981.49
2023-01-15T01:08:30.122Z,981.51
2023-01-15T01:09:30.143Z,981.60
2023-01-15T01:10:30.042Z,981.66
2023-01-15T01:11:30.008Z,981.67
2023-01-15T01:12:30.067Z,981.76
2023-01-15T01:13:30.025Z,981.67
2023-01-15T01:14:30.038Z,981.68
2023-01-15T01:15:30.062Z,981.65
2023-01-15T01:16:30.120Z,981.63
2023-01-15T01:17:30.004Z,981.56
2023-01-15T01:18:30.013Z,981.56
2023-01-15T01:19:29.979Z,981.62
2023-01-15T01:20:29.975Z,981.63
2023-01-15T01:21:30.011Z,981.74
2023-01-15T01:22:29.993Z,981.60
2023-01-15T01:23:29.966Z,981.67
2023-01-15T01:24:30.032Z,981.79
2023-01-15T01:25:30.004Z,981.81
2023-01-15T01:26:29.907Z,981.90
2023-01-15T01:27:29.966Z,981.82
2023-01-15T01:28:29.944Z,981.93
2023-01-15T01:29:29.925Z,981.96
2023-01-15T01:30:29.903Z,982.03
2023-01-15T01:31:29.904Z,982.00
2023-01-15T01:33:04.485Z,982.02
2023-01-15T01:33:30.957Z,982.07
2023-01-15T01:34:29.928Z,982.05
2023-01-15T01:35:30.406Z,982.11
2023-01-15T01:36:29.834Z,982.14
2023-01-15T01:37:29.855Z,982.15
2023-01-15T01:38:29.888Z,982.09
2023-01-15T01:39:30.329Z,982.17
2023-01-15T01:40:29.870Z,982.10
2023-01-15T01:41:29.792Z,982.05
2023-01-15T01:42:29.854Z,982.17
2023-01-15T01:43:29.804Z,982.18
2023-01-15T01:44:29.824Z,982.18
2023-01-15T01:45:29.867Z,982.21
2023-01-15T01:46:29.767Z,982.17
2023-01-15T01:47:29.926Z,982.24
2023-01-15T01:48:29.758Z,982.27
2023-01-15T01:49:29.801Z,982.30
2023-01-15T01:50:29.799Z,982.26
2023-01-15T01:51:30.690Z,982.18
2023-01-15T01:52:29.720Z,982.21
2023-01-15T01:53:29.718Z,982.25
2023-01-15T01:54:29.748Z,982.26
2023-01-15T01:55:29.834Z,982.21
2023-01-15T01:56:29.676Z,982.29
2023-01-15T01:57:29.686Z,982.37
2023-01-15T01:58:29.695Z,982.28
2023-01-15T01:59:29.660Z,982.37
2023-01-15T02:00:29.804Z,982.41
2023-01-15T02:01:29.796Z,982.37
2023-01-15T02:02:29.770Z,982.42
2023-01-15T02:03:29.677Z,982.41
2023-01-15T02:04:29.629Z,982.39
2023-01-15T02:05:29.600Z,982.44
2023-01-15T02:06:29.590Z,982.44
2023-01-15T02:07:29.613Z,982.47
2023-01-15T02:09:04.265Z,982.52
2023-01-15T02:09:29.768Z,982.61
2023-01-15T02:10:29.647Z,982.65
2023-01-15T02:11:29.565Z,982.67
2023-01-15T02:12:29.569Z,982.73
2023-01-15T02:14:02.260Z,982.66
2023-01-15T02:14:29.894Z,982.72
2023-01-15T02:16:02.352Z,982.76
2023-01-15T02:16:29.901Z,982.89
2023-01-15T02:18:02.325Z,982.75
2023-01-15T02:18:29.547Z,982.90
2023-01-15T02:19:29.870Z,982.94
2023-01-15T02:20:29.506Z,982.93
2023-01-15T02:21:29.596Z,982.89
2023-01-15T02:22:29.509Z,982.95
2023-01-15T02:23:29.724Z,982.91
2023-01-15T02:24:29.495Z,983.02
2023-01-15T02:26:03.132Z,983.09
2023-01-15T02:27:01.985Z,983.03
2023-01-15T02:27:29.453Z,983.02
2023-01-15T02:29:01.872Z,983.11
2023-01-15T02:29:29.563Z,983.13
2023-01-15T02:31:01.971Z,983.08
2023-01-15T02:32:02.037Z,983.20
2023-01-15T02:32:29.398Z,983.14
2023-01-15T02:34:01.910Z,983.19
2023-01-15T02:34:29.509Z,983.22
2023-01-15T02:35:29.581Z,983.17
2023-01-15T02:36:29.404Z,983.11
2023-01-15T02:37:29.369Z,983.10
2023-01-15T02:38:29.407Z,983.15
2023-01-15T02:39:29.377Z,983.21
2023-01-15T02:40:29.420Z,983.13
2023-01-15T02:41:29.319Z,983.14
2023-01-15T02:42:30.327Z,983.11
2023-01-15T02:43:29.353Z,983.14
2023-01-15T02:45:01.277Z,983.10
2023-01-15T02:45:29.377Z,983.16
2023-01-15T02:46:29.288Z,983.21
2023-01-15T02:47:29.397Z,983.21
2023-01-15T02:48:29.256Z,983.18
2023-01-15T02:49:29.260Z,983.17
2023-01-15T02:50:29.241Z,983.16
2023-01-15T02:51:29.272Z,983.20
2023-01-15T02:52:29.211Z,983.25
2023-01-15T02:53:29.225Z,983.22
2023-01-15T02:54:29.204Z,983.21
2023-01-15T02:55:29.227Z,983.21
2023-01-15T02:56:29.187Z,983.26
2023-01-15T02:57:29.196Z,983.20
2023-01-15T02:58:29.175Z,983.15
2023-01-15T02:59:29.159Z,983.15
2023-01-15T03:00:29.164Z,983.13
2023-01-15T03:01:29.395Z,983.21
2023-01-15T03:02:29.204Z,983.23
2023-01-15T03:03:29.146Z,983.18
2023-01-15T03:04:29.142Z,983.26
2023-01-15T03:05:29.121Z,983.27
2023-01-15T03:06:29.100Z,983.26
2023-01-15T03:07:29.131Z,983.28
2023-01-15T03:08:29.162Z,983.25
2023-01-15T03:09:29.086Z,983.28
2023-01-15T03:10:29.101Z,983.23
2023-01-15T03:11:29.153Z,983.27
2023-01-15T03:12:29.047Z,983.27
2023-01-15T03:13:29.140Z,983.26
2023-01-15T03:14:29.067Z,983.34
2023-01-15T03:15:29.044Z,983.40
2023-01-15T03:16:29.072Z,983.41
2023-01-15T03:17:29.016Z,983.46
2023-01-15T03:18:29.140Z,983.47
2023-01-15T03:19:29.066Z,983.43
2023-01-15T03:20:29.000Z,983.53
2023-01-15T03:21:29.026Z,983.45
2023-01-15T03:22:28.982Z,983.52
2023-01-15T03:23:28.975Z,983.50
2023-01-15T03:24:29.019Z,983.50
2023-01-15T03:25:29.045Z,983.51
2023-01-15T03:26:28.961Z,983.51
2023-01-15T03:27:28.997Z,983.52
2023-01-15T03:28:28.947Z,983.57
2023-01-15T03:29:28.930Z,983.60
2023-01-15T03:30:29.996Z,983.66
2023-01-15T03:31:28.921Z,983.58
2023-01-15T03:32:28.924Z,983.52
2023-01-15T03:33:28.951Z,983.56
2023-01-15T03:34:28.918Z,983.61
2023-01-15T03:35:28.876Z,983.64
2023-01-15T03:36:28.901Z,983.64
2023-01-15T03:37:28.944Z,983.66
2023-01-15T03:38:28.901Z,983.65
2023-01-15T03:39:28.850Z,983.72
2023-01-15T03:40:28.860Z,983.70
2023-01-15T03:42:01.495Z,983.68
2023-01-15T03:42:28.848Z,983.69
2023-01-15T03:43:28.813Z,983.70
2023-01-15T03:44:28.834Z,983.73
2023-01-15T03:45:28.832Z,983.74
2023-01-15T03:46:28.924Z,983.71
2023-01-15T03:47:28.834Z,983.64
2023-01-15T04:03:15.925Z,984.30
2023-01-15T04:04:15.938Z,984.31
2023-01-15T04:05:17.027Z,984.34
2023-01-15T04:06:17.041Z,984.29
2023-01-15T04:07:17.032Z,984.27
2023-01-15T04:08:18.053Z,984.31
2023-01-15T04:09:18.012Z,984.26
2023-01-15T04:10:17.017Z,984.22
2023-01-15T04:11:16.974Z,984.39
2023-01-15T04:12:16.996Z,984.36
2023-01-15T04:13:17.031Z,984.40
2023-01-15T04:14:17.094Z,984.46
2023-01-15T04:15:17.002Z,984.46
2023-01-15T04:16:17.048Z,984.45
2023-01-15T04:17:16.961Z,984.34
2023-01-15T04:18:16.957Z,984.34
2023-01-15T04:19:17.090Z,984.40
2023-01-15T04:20:16.923Z,984.41
2023-01-15T04:21:17.012Z,984.45
2023-01-15T04:22:16.966Z,984.40
2023-01-15T04:23:16.926Z,984.52
2023-01-15T04:24:16.953Z,984.52
2023-01-15T04:25:17.079Z,984.56
2023-01-15T04:26:16.962Z,984.57
2023-01-15T04:27:16.866Z,984.52
2023-01-15T04:28:16.912Z,984.48
2023-01-15T04:29:16.879Z,984.42
2023-01-15T04:30:16.900Z,984.38
2023-01-15T04:31:16.886Z,984.39
2023-01-15T04:32:16.829Z,984.43
2023-01-15T04:33:16.865Z,984.44
2023-01-15T04:34:16.814Z,984.46
2023-01-15T04:35:16.859Z,984.42
2023-01-15T04:36:16.898Z,984.45
2023-01-15T04:37:16.916Z,984.39
2023-01-15T04:38:16.804Z,984.34
2023-01-15T04:39:16.770Z,984.34
2023-01-15T04:40:16.772Z,984.37
2023-01-15T04:41:16.797Z,984.40
2023-01-15T04:42:16.754Z,984.42
2023-01-15T04:43:16.768Z,984.37
2023-01-15T04:44:16.746Z,984.35
2023-01-15T04:45:16.840Z,984.34
2023-01-15T04:46:16.809Z,984.31
2023-01-15T04:47:16.752Z,984.31
2023-01-15T04:48:16.789Z,984.33
2023-01-15T04:49:16.692Z,984.40
2023-01-15T04:50:16.791Z,984.45
2023-01-15T04:51:16.721Z,984.47
2023-01-15T04:52:16.681Z,984.41
2023-01-15T04:53:16.677Z,984.49
2023-01-15T04:54:16.682Z,984.36
2023-01-15T04:55:16.659Z,984.39
2023-01-15T04:56:16.625Z,984.38
2023-01-15T04:57:17.697Z,984.27
2023-01-15T04:58:16.695Z,984.29
2023-01-15T04:59:16.678Z,984.30
2023-01-15T05:00:16.720Z,984.33
2023-01-15T05:01:16.685Z,984.33
2023-01-15T05:02:16.783Z,984.46
2023-01-15T05:03:16.653Z,984.57
2023-01-15T05:04:16.657Z,984.59
2023-01-15T05:05:16.704Z,984.58
2023-01-15T05:06:16.598Z,984.56
2023-01-15T05:07:16.568Z,984.60
2023-01-15T05:08:16.613Z,984.58
2023-01-15T05:09:16.553Z,984.57
2023-01-15T05:10:16.627Z,984.53
2023-01-15T05:11:16.527Z,984.49
2023-01-15T05:12:16.639Z,984.47
2023-01-15T05:13:16.601Z,984.51
2023-01-15T05:14:16.612Z,984.50
2023-01-15T05:15:16.553Z,984.52
2023-01-15T05:16:16.633Z,984.51
2023-01-15T05:17:16.552Z,984.57
2023-01-15T05:18:16.586Z,984.53
2023-01-15T05:19:16.512Z,984.54
2023-01-15T05:20:16.543Z,984.54
2023-01-15T05:21:16.551Z,984.58
2023-01-15T05:22:17.170Z,984.55
2023-01-15T05:23:16.487Z,984.59
2023-01-15T05:24:16.579Z,984.57
2023-01-15T05:25:17.252Z,984.56
2023-01-15T05:26:16.521Z,984.59
2023-01-15T05:27:16.475Z,984.56
2023-01-15T05:28:16.495Z,984.54
2023-01-15T05:29:16.462Z,984.59
2023-01-15T05:30:16.505Z,984.55
2023-01-15T05:31:16.572Z,984.59
2023-01-15T05:32:16.505Z,984.63
2023-01-15T05:33:17.163Z,984.55
2023-01-15T05:34:16.497Z,984.62
2023-01-15T05:35:16.589Z,984.58
2023-01-15T05:36:16.518Z,984.57
2023-01-15T05:37:16.502Z,984.61
2023-01-15T05:38:16.369Z,984.60
2023-01-15T05:39:16.466Z,984.56
2023-01-15T05:40:16.379Z,984.54
2023-01-15T05:41:17.812Z,984.57
2023-01-15T05:42:16.427Z,984.66
2023-01-15T05:43:16.347Z,984.69
2023-01-15T05:44:16.549Z,984.76
2023-01-15T05:45:16.513Z,984.77
2023-01-15T05:46:17.395Z,984.74
2023-01-15T05:47:17.293Z,984.76
2023-01-15T05:48:16.461Z,984.64
2023-01-15T05:49:16.477Z,984.69
2023-01-15T05:50:17.267Z,984.72
2023-01-15T05:51:16.301Z,984.69
2023-01-15T05:52:18.976Z,984.72
2023-01-15T05:53:17.342Z,984.79
2023-01-15T05:54:16.407Z,984.87
2023-01-15T05:55:17.496Z,984.85
2023-01-15T05:56:16.347Z,984.78
2023-01-15T05:57:16.462Z,984.72
2023-01-15T05:58:16.504Z,984.72
2023-01-15T05:59:17.485Z,984.63
2023-01-15T06:00:16.198Z,984.62
2023-01-15T06:01:16.398Z,984.72
2023-01-15T06:02:16.615Z,984.76
2023-01-15T06:03:16.447Z,984.77
2023-01-15T06:04:17.977Z,984.88
2023-01-15T06:05:16.985Z,984.88
2023-01-15T06:06:16.211Z,984.84
2023-01-15T06:07:17.520Z,984.85
2023-01-15T06:08:16.272Z,984.84
2023-01-15T06:09:16.242Z,984.83
2023-01-15T06:10:16.331Z,984.86
2023-01-15T06:11:16.978Z,984.94
2023-01-15T06:12:16.324Z,984.96
2023-01-15T06:13:18.058Z,984.91
2023-01-15T06:14:16.309Z,984.94
2023-01-15T06:15:16.253Z,984.94
2023-01-15T06:16:16.895Z,984.97
2023-01-15T06:17:16.283Z,984.97
2023-01-15T06:18:16.239Z,984.93
2023-01-15T06:19:16.860Z,985.00
2023-01-15T06:20:16.682Z,985.04
2023-01-15T06:21:16.019Z,985.10
2023-01-15T06:22:16.817Z,985.12
2023-01-15T06:23:16.814Z,985.16
2023-01-15T06:24:17.371Z,985.19
2023-01-15T06:25:16.149Z,985.22
2023-01-15T06:26:16.243Z,985.17
2023-01-15T06:27:16.799Z,985.22
2023-01-15T06:28:17.170Z,985.17
2023-01-15T06:29:16.130Z,985.11
2023-01-15T06:30:16.784Z,985.12
2023-01-15T06:31:16.591Z,985.06
2023-01-15T06:32:16.826Z,985.03
2023-01-15T06:33:16.103Z,985.00
2023-01-15T06:34:16.104Z,985.06
2023-01-15T06:35:16.494Z,985.03
2023-01-15T06:36:16.885Z,985.00
2023-01-15T06:37:16.113Z,985.08
2023-01-15T06:38:16.240Z,985.08
2023-01-15T06:39:15.908Z,985.15
2023-01-15T06:40:16.043Z,985.14
2023-01-15T06:41:15.900Z,985.09
2023-01-15T06:42:15.889Z,985.06
2023-01-15T06:43:15.857Z,985.04
2023-01-15T06:44:15.852Z,985.04
2023-01-15T06:45:15.839Z,985.04
2023-01-15T06:46:15.878Z,985.05
2023-01-15T06:47:15.944Z,985.00
2023-01-15T06:48:15.812Z,984.97
2023-01-15T06:49:15.798Z,985.01
2023-01-15T06:50:15.834Z,985.03
2023-01-15T06:51:15.859Z,985.09
2023-01-15T06:52:15.789Z,985.05
2023-01-15T06:53:15.841Z,985.07
2023-01-15T06:54:15.850Z,985.05
2023-01-15T06:55:48.496Z,985.07
2023-01-15T06:56:15.991Z,985.10
2023-01-15T06:57:16.525Z,985.07
2023-01-15T06:58:15.838Z,985.06
2023-01-15T06:59:15.754Z,985.06
2023-01-15T07:00:15.769Z,985.06
2023-01-15T07:01:15.838Z,985.04
2023-01-15T07:02:15.724Z,985.06
2023-01-15T07:03:15.735Z,985.06
2023-01-15T07:04:15.740Z,985.08
2023-01-15T07:05:15.731Z,985.08
2023-01-15T07:06:15.697Z,985.10
2023-01-15T07:07:15.694Z,985.17
2023-01-15T07:08:15.651Z,985.21
2023-01-15T07:09:15.690Z,985.15
2023-01-15T07:10:15.708Z,985.18
2023-01-15T07:11:15.644Z,985.16
2023-01-15T07:12:15.670Z,985.09
2023-01-15T07:13:16.635Z,985.17
2023-01-15T07:14:15.674Z,985.11
2023-01-15T07:15:15.651Z,985.14
2023-01-15T07:16:15.700Z,985.16
2023-01-15T07:17:15.610Z,985.23
2023-01-15T07:18:15.596Z,985.15
2023-01-15T07:19:15.773Z,985.19
2023-01-15T07:20:15.636Z,985.18
2023-01-15T07:21:15.605Z,985.16
2023-01-15T07:22:15.604Z,985.18
2023-01-15T07:23:16.815Z,985.25
2023-01-15T07:24:16.608Z,985.20
2023-01-15T07:25:15.570Z,985.21
2023-01-15T07:26:15.522Z,985.22
2023-01-15T07:27:15.511Z,985.21
2023-01-15T07:28:15.515Z,985.18
2023-01-15T07:29:16.218Z,985.20
2023-01-15T07:30:15.553Z,985.17
2023-01-15T07:31:15.650Z,985.27
2023-01-15T07:32:15.502Z,985.27
2023-01-15T07:33:15.491Z,985.22
2023-01-15T07:34:16.462Z,985.27
2023-01-15T07:35:15.491Z,985.28
2023-01-15T07:36:15.522Z,985.27
2023-01-15T07:37:16.488Z,985.30
2023-01-15T07:38:15.492Z,985.30
2023-01-15T07:39:15.515Z,985.33
2023-01-15T07:40:15.463Z,985.41
2023-01-15T07:41:15.471Z,985.39
2023-01-15T07:42:15.394Z,985.46
2023-01-15T07:43:15.449Z,985.50
2023-01-15T07:44:15.386Z,985.53
2023-01-15T07:45:15.475Z,985.51
2023-01-15T07:46:15.447Z,985.56
2023-01-15T07:47:15.477Z,985.56
2023-01-15T07:48:15.390Z,985.53
2023-01-15T07:49:15.386Z,985.47
2023-01-15T07:50:15.368Z,985.45
2023-01-15T07:51:15.332Z,985.54
2023-01-15T07:52:15.412Z,985.57
2023-01-15T07:53:15.350Z,985.53
2023-01-15T07:54:15.336Z,985.56
2023-01-15T07:55:15.341Z,985.54
2023-01-15T07:56:15.344Z,985.60
2023-01-15T07:57:15.295Z,985.55
2023-01-15T07:58:15.312Z,985.65
2023-01-15T07:59:15.289Z,985.66
2023-01-15T08:00:15.293Z,985.64
2023-01-15T08:01:15.492Z,985.59
2023-01-15T08:02:15.291Z,985.61
2023-01-15T08:03:15.315Z,985.60
2023-01-15T08:04:15.346Z,985.67
2023-01-15T08:05:16.016Z,985.61
2023-01-15T08:06:15.558Z,985.68
2023-01-15T08:07:15.352Z,985.73
2023-01-15T08:08:15.449Z,985.76
2023-01-15T08:09:16.169Z,985.80
2023-01-15T08:10:15.338Z,985.75
2023-01-15T08:11:15.220Z,985.72
2023-01-15T08:12:16.261Z,985.66
2023-01-15T08:13:15.766Z,985.72
2023-01-15T08:14:15.343Z,985.81
2023-01-15T08:15:15.237Z,985.83
2023-01-15T08:16:16.283Z,985.78
2023-01-15T08:17:15.148Z,985.77
2023-01-15T08:18:15.117Z,985.80
2023-01-15T08:19:15.118Z,985.79
2023-01-15T08:20:15.144Z,985.82
2023-01-15T08:21:15.095Z,985.79
2023-01-15T08:22:15.122Z,985.77
2023-01-15T08:23:15.072Z,985.80
2023-01-15T08:24:15.162Z,985.85
2023-01-15T08:25:15.107Z,985.80
2023-01-15T08:26:15.274Z,985.81
2023-01-15T08:27:15.079Z,985.84
2023-01-15T08:28:15.054Z,985.88
2023-01-15T08:29:47.445Z,985.90
2023-01-15T08:30:15.042Z,985.88
2023-01-15T08:31:15.046Z,985.84
2023-01-15T08:32:15.056Z,985.90
2023-01-15T08:33:15.040Z,985.95
2023-01-15T08:34:15.024Z,985.97
2023-01-15T08:35:15.977Z,986.02
2023-01-15T08:36:15.007Z,985.97
2023-01-15T08:37:14.982Z,986.05
2023-01-15T08:38:15.023Z,986.03
2023-01-15T08:39:14.984Z,986.09
2023-01-15T08:40:14.951Z,986.08
2023-01-15T08:41:14.947Z,985.97
2023-01-15T08:42:14.961Z,986.09
2023-01-15T08:43:14.937Z,986.11
2023-01-15T08:44:14.970Z,986.08
2023-01-15T08:45:14.934Z,986.16
2023-01-15T08:46:46.861Z,986.19
2023-01-15T08:47:14.919Z,986.12
2023-01-15T08:48:14.887Z,986.13
2023-01-15T08:49:14.887Z,986.18
2023-01-15T08:50:14.898Z,986.18
2023-01-15T08:51:14.930Z,986.15
2023-01-15T08:52:14.851Z,986.15
2023-01-15T08:53:14.849Z,986.10
2023-01-15T08:54:14.850Z,986.08
2023-01-15T08:55:14.907Z,986.16
2023-01-15T08:56:14.831Z,986.22
2023-01-15T08:57:14.863Z,986.23
2023-01-15T08:58:14.834Z,986.16
2023-01-15T08:59:14.811Z,986.23
2023-01-15T09:00:16.187Z,986.16
2023-01-15T09:01:14.898Z,986.17
2023-01-15T09:02:14.811Z,986.21
2023-01-15T09:03:14.776Z,986.26
2023-01-15T09:04:14.762Z,986.24
2023-01-15T09:05:14.824Z,986.33
2023-01-15T09:06:14.806Z,986.36
2023-01-15T09:07:14.813Z,986.32
2023-01-15T09:08:14.754Z,986.37
2023-01-15T09:09:14.795Z,986.42
2023-01-15T09:10:14.773Z,986.30
2023-01-15T09:11:14.706Z,986.31
2023-01-15T09:12:14.723Z,986.22
2023-01-15T09:13:14.696Z,986.28
2023-01-15T09:14:59.335Z,986.28
2023-01-15T09:15:15.680Z,986.29
2023-01-15T09:16:15.664Z,986.39
2023-01-15T09:17:14.706Z,986.43
2023-01-15T09:18:14.674Z,986.48
2023-01-15T09:19:14.683Z,986.48
2023-01-15T09:20:14.712Z,986.47
2023-01-15T09:21:14.643Z,986.49
2023-01-15T09:22:14.639Z,986.55
2023-01-15T09:23:14.632Z,986.49
2023-01-15T09:24:14.664Z,986.51
2023-01-15T09:25:14.659Z,986.50
2023-01-15T09:26:14.638Z,986.51
2023-01-15T09:27:14.651Z,986.47
2023-01-15T09:28:14.638Z,986.54
2023-01-15T09:29:14.639Z,986.56
2023-01-15T09:30:14.600Z,986.60
2023-01-15T09:31:14.596Z,986.49
2023-01-15T09:32:14.588Z,986.45
2023-01-15T09:33:14.547Z,986.48
2023-01-15T09:34:46.497Z,986.42
2023-01-15T09:35:14.539Z,986.42
2023-01-15T09:36:14.520Z,986.47
2023-01-15T09:37:14.536Z,986.52
2023-01-15T09:38:14.541Z,986.43
2023-01-15T09:39:14.520Z,986.51
2023-01-15T09:40:14.527Z,986.54
2023-01-15T09:41:14.490Z,986.52
2023-01-15T09:42:14.507Z,986.55
2023-01-15T09:43:14.478Z,986.54
2023-01-15T09:44:14.508Z,986.64
2023-01-15T09:45:14.492Z,986.63
2023-01-15T09:46:14.553Z,986.64
2023-01-15T09:47:14.471Z,986.64
2023-01-15T09:48:15.770Z,986.54
2023-01-15T09:49:14.452Z,986.54
2023-01-15T09:50:14.435Z,986.56
2023-01-15T09:51:14.497Z,986.55
2023-01-15T09:52:14.424Z,986.61
2023-01-15T09:53:14.401Z,986.54
2023-01-15T09:54:14.380Z,986.65
2023-01-15T09:55:14.440Z,986.67
2023-01-15T09:56:14.388Z,986.63
2023-01-15T09:57:14.435Z,986.74
2023-01-15T09:58:14.390Z,986.75
2023-01-15T09:59:14.385Z,986.69
2023-01-15T10:00:14.377Z,986.69
2023-01-15T10:01:14.432Z,986.71
2023-01-15T10:02:14.335Z,986.70
2023-01-15T10:03:14.402Z,986.70
2023-01-15T10:04:14.392Z,986.72
2023-01-15T10:05:14.348Z,986.71
2023-01-15T10:06:14.353Z,986.76
2023-01-15T10:07:14.305Z,986.76
2023-01-15T10:08:14.295Z,986.80
2023-01-15T10:09:14.386Z,986.78
2023-01-15T10:10:15.293Z,986.77
2023-01-15T10:11:14.283Z,986.80
2023-01-15T10:12:14.262Z,986.82
2023-01-15T10:13:14.296Z,986.80
2023-01-15T10:14:14.270Z,986.77
2023-01-15T10:15:14.408Z,986.81
2023-01-15T10:16:14.312Z,986.77
2023-01-15T10:17:14.214Z,986.68
2023-01-15T10:18:14.222Z,986.70
2023-01-15T10:19:14.213Z,986.65
2023-01-15T10:20:14.228Z,986.64
2023-01-15T10:21:14.218Z,986.63
2023-01-15T10:22:14.266Z,986.62
2023-01-15T10:23:14.184Z,986.61
2023-01-15T10:24:14.154Z,986.60
2023-01-15T10:25:14.177Z,986.58
2023-01-15T10:26:14.170Z,986.60
2023-01-15T10:27:14.163Z,986.57
2023-01-15T10:28:14.158Z,986.63
2023-01-15T10:29:14.140Z,986.53
2023-01-15T10:30:14.127Z,986.56
2023-01-15T10:31:14.151Z,986.63
2023-01-15T10:32:14.118Z,986.72
2023-01-15T10:33:14.105Z,986.68
2023-01-15T10:34:14.095Z,986.64
2023-01-15T10:35:14.107Z,986.67
2023-01-15T10:36:14.086Z,986.59
2023-01-15T10:37:14.071Z,986.66
2023-01-15T10:38:14.067Z,986.70
2023-01-15T10:39:14.048Z,986.67
2023-01-15T10:40:14.075Z,986.66
2023-01-15T10:41:14.074Z,986.69
2023-01-15T10:42:14.021Z,986.66
2023-01-15T10:43:14.063Z,986.67
2023-01-15T10:44:14.013Z,986.65
2023-01-15T10:45:14.017Z,986.69
2023-01-15T10:46:14.121Z,986.67
2023-01-15T10:47:14.000Z,986.67
2023-01-15T10:48:14.023Z,986.61
2023-01-15T10:49:13.990Z,986.55
2023-01-15T10:50:14.084Z,986.63
2023-01-15T10:51:14.013Z,986.67
2023-01-15T10:52:13.990Z,986.59
2023-01-15T10:53:13.961Z,986.63
2023-01-15T10:54:13.940Z,986.52
2023-01-15T10:55:13.934Z,986.54
2023-01-15T10:56:13.996Z,986.56
2023-01-15T10:57:13.921Z,986.56
2023-01-15T10:58:13.939Z,986.60
2023-01-15T10:59:13.932Z,986.59
2023-01-15T11:00:13.888Z,986.59
2023-01-15T11:01:14.061Z,986.54
2023-01-15T11:02:14.044Z,986.56
2023-01-15T11:03:13.930Z,986.51
2023-01-15T11:04:13.902Z,986.42
2023-01-15T11:05:13.867Z,986.49
2023-01-15T11:06:13.895Z,986.54
2023-01-15T11:07:13.853Z,986.56
2023-01-15T11:08:58.324Z,986.45
2023-01-15T11:09:15.812Z,986.49
2023-01-15T11:10:13.812Z,986.39
2023-01-15T11:11:13.816Z,986.46
2023-01-15T11:12:13.844Z,986.47
2023-01-15T11:13:13.802Z,986.49
2023-01-15T11:14:13.796Z,986.49
2023-01-15T11:15:13.837Z,986.39
2023-01-15T11:16:13.797Z,986.47
2023-01-15T11:17:13.784Z,986.38
2023-01-15T11:18:13.817Z,986.42
2023-01-15T11:19:13.779Z,986.42
2023-01-15T11:20:13.750Z,986.36
2023-01-15T11:21:13.739Z,986.35
2023-01-15T11:22:13.757Z,986.33
2023-01-15T11:23:13.732Z,986.37
2023-01-15T11:24:13.738Z,986.37
2023-01-15T11:25:13.714Z,986.39
2023-01-15T11:26:13.752Z,986.39
2023-01-15T11:27:13.685Z,986.35
2023-01-15T11:28:13.707Z,986.32
2023-01-15T11:29:14.808Z,986.37
2023-01-15T11:30:13.691Z,986.31
2023-01-15T11:31:13.718Z,986.44
2023-01-15T11:32:13.643Z,986.39
2023-01-15T11:33:13.671Z,986.41
2023-01-15T11:34:13.650Z,986.43
2023-01-15T11:35:13.629Z,986.47
2023-01-15T11:36:13.707Z,986.43
2023-01-15T11:37:13.611Z,986.41
2023-01-15T11:38:13.633Z,986.39
2023-01-15T11:39:13.611Z,986.46
2023-01-15T11:40:13.624Z,986.47
2023-01-15T11:41:13.665Z,986.50
2023-01-15T11:42:13.621Z,986.50
2023-01-15T11:43:13.623Z,986.50
2023-01-15T11:44:13.597Z,986.57
2023-01-15T11:45:13.583Z,986.51
2023-01-15T11:46:13.617Z,986.51
2023-01-15T11:47:13.539Z,986.48
2023-01-15T11:48:13.511Z,986.49
2023-01-15T11:49:13.561Z,986.47
2023-01-15T11:50:13.510Z,986.53
2023-01-15T11:51:13.527Z,986.56
2023-01-15T11:52:13.554Z,986.54
2023-01-15T11:53:13.493Z,986.57
2023-01-15T11:54:13.473Z,986.51
2023-01-15T11:55:13.469Z,986.45
2023-01-15T11:56:13.479Z,986.37
2023-01-15T11:57:13.477Z,986.39
2023-01-15T11:58:13.465Z,986.40
2023-01-15T11:59:13.438Z,986.41
2023-01-15T12:00:13.457Z,986.31
2023-01-15T12:01:13.402Z,986.43
2023-01-15T12:02:13.444Z,986.31
2023-01-15T12:03:13.455Z,986.18
2023-01-15T12:04:13.452Z,986.22
2023-01-15T12:05:13.404Z,986.07
2023-01-15T12:06:14.299Z,986.19
2023-01-15T12:07:13.430Z,986.10
2023-01-15T12:08:13.363Z,986.10
2023-01-15T12:09:13.361Z,986.08
2023-01-15T12:10:13.392Z,985.93
2023-01-15T12:11:25.842Z,986.04
2023-01-15T12:12:15.355Z,985.94
2023-01-15T12:13:13.335Z,986.09
2023-01-15T12:14:13.315Z,986.01
2023-01-15T12:15:13.298Z,986.04
2023-01-15T12:16:13.341Z,986.13
2023-01-15T12:17:13.335Z,986.12
2023-01-15T12:18:13.322Z,986.00
2023-01-15T12:19:13.272Z,986.03
2023-01-15T12:20:13.309Z,986.16
2023-01-15T12:21:13.290Z,986.09
2023-01-15T12:22:13.306Z,986.12
2023-01-15T12:23:13.311Z,986.16
2023-01-15T12:24:13.270Z,986.15
2023-01-15T12:25:13.248Z,986.14
2023-01-15T12:26:13.226Z,986.02
2023-01-15T12:27:13.237Z,986.10
2023-01-15T12:28:13.235Z,986.14
2023-01-15T12:29:13.257Z,986.08
2023-01-15T12:30:13.212Z,986.06
2023-01-15T12:31:13.309Z,986.15
2023-01-15T12:32:15.783Z,986.07
2023-01-15T12:33:13.277Z,986.10
2023-01-15T12:34:13.170Z,986.19
2023-01-15T12:35:13.175Z,986.11
2023-01-15T12:36:13.207Z,985.97
2023-01-15T12:37:13.152Z,986.16
2023-01-15T12:38:13.178Z,986.01
2023-01-15T12:39:13.169Z,986.13
2023-01-15T12:40:13.211Z,986.14
2023-01-15T12:41:13.123Z,986.10
2023-01-15T12:42:13.134Z,986.04
2023-01-15T12:43:13.097Z,985.99